sensor_id;sensor_type;location;lat;lon;timestamp;temperature;humidity
63802;DHT22;49949;43.060;25.624;2024-01-27T00:01:36;-0.50;99.90
63802;DHT22;49949;43.060;25.624;2024-01-27T00:04:02;-0.50;99.90
63802;DHT22;49949;43.060;25.624;2024-01-27T00:06:28;-0.50;99.90
63802;DHT22;49949;43.060;25.624;2024-01-27T00:08:53;-0.50;99.90
63802;DHT22;49949;43.060;25.624;2024-01-27T00:11:19;-0.60;99.90
63802;DHT22;49949;43.060;25.624;2024-01-27T00:13:46;-0.70;99.90
63802;DHT22;49949;43.060;25.624;2024-01-27T00:16:12;-0.70;99.90
63802;DHT22;49949;43.060;25.624;2024-01-27T00:18:38;-0.80;99.90
63802;DHT22;49949;43.060;25.624;2024-01-27T00:21:05;-0.80;99.90
63802;DHT22;49949;43.060;25.624;2024-01-27T00:23:31;-0.90;99.90
63802;DHT22;49949;43.060;25.624;2024-01-27T00:26:01;-0.90;99.90
63802;DHT22;49949;43.060;25.624;2024-01-27T00:28:27;-0.90;99.90
63802;DHT22;49949;43.060;25.624;2024-01-27T00:30:52;-0.90;99.90
63802;DHT22;49949;43.060;25.624;2024-01-27T00:33:18;-1.00;99.90
63802;DHT22;49949;43.060;25.624;2024-01-27T00:35:43;-1.00;99.90
63802;DHT22;49949;43.060;25.624;2024-01-27T00:38:09;-1.10;99.90
63802;DHT22;49949;43.060;25.624;2024-01-27T00:40:35;-1.10;99.90
63802;DHT22;49949;43.060;25.624;2024-01-27T00:43:03;-1.00;99.90
63802;DHT22;49949;43.060;25.624;2024-01-27T00:45:29;-1.10;99.90
63802;DHT22;49949;43.060;25.624;2024-01-27T00:47:56;-1.10;99.90
63802;DHT22;49949;43.060;25.624;2024-01-27T00:50:22;-1.10;99.90
63802;DHT22;49949;43.060;25.624;2024-01-27T00:52:47;-1.20;99.90
63802;DHT22;49949;43.060;25.624;2024-01-27T00:55:13;-1.10;99.90
63802;DHT22;49949;43.060;25.624;2024-01-27T00:57:39;-1.20;99.90
63802;DHT22;49949;43.060;25.624;2024-01-27T01:00:09;-1.30;99.90
63802;DHT22;49949;43.060;25.624;2024-01-27T01:02:36;-1.30;99.90
63802;DHT22;49949;43.060;25.624;2024-01-27T01:05:01;-1.30;99.90
63802;DHT22;49949;43.060;25.624;2024-01-27T01:07:29;-1.30;99.90
63802;DHT22;49949;43.060;25.624;2024-01-27T01:09:55;-1.40;99.90
63802;DHT22;49949;43.060;25.624;2024-01-27T01:12:21;-1.40;99.90
63802;DHT22;49949;43.060;25.624;2024-01-27T01:14:47;-1.40;99.90
63802;DHT22;49949;43.060;25.624;2024-01-27T01:17:13;-1.50;99.90
63802;DHT22;49949;43.060;25.624;2024-01-27T01:19:40;-1.50;99.90
63802;DHT22;49949;43.060;25.624;2024-01-27T01:22:05;-1.40;99.90
63802;DHT22;49949;43.060;25.624;2024-01-27T01:24:32;-1.50;99.90
63802;DHT22;49949;43.060;25.624;2024-01-27T01:26:58;-1.50;99.90
63802;DHT22;49949;43.060;25.624;2024-01-27T01:29:24;-1.50;99.90
63802;DHT22;49949;43.060;25.624;2024-01-27T01:31:50;-1.50;99.90
63802;DHT22;49949;43.060;25.624;2024-01-27T01:34:16;-1.50;99.90
63802;DHT22;49949;43.060;25.624;2024-01-27T01:36:41;-1.50;99.90
63802;DHT22;49949;43.060;25.624;2024-01-27T01:39:10;-1.60;99.90
63802;DHT22;49949;43.060;25.624;2024-01-27T01:41:36;-1.50;99.90
63802;DHT22;49949;43.060;25.624;2024-01-27T01:44:01;-1.60;99.90
63802;DHT22;49949;43.060;25.624;2024-01-27T01:46:27;-1.60;99.90
63802;DHT22;49949;43.060;25.624;2024-01-27T01:48:53;-1.60;99.90
63802;DHT22;49949;43.060;25.624;2024-01-27T01:51:19;-1.60;99.90
63802;DHT22;49949;43.060;25.624;2024-01-27T01:53:48;-1.60;99.90
63802;DHT22;49949;43.060;25.624;2024-01-27T01:56:17;-1.60;99.90
63802;DHT22;49949;43.060;25.624;2024-01-27T01:58:43;-1.70;99.90
63802;DHT22;49949;43.060;25.624;2024-01-27T02:01:09;-1.60;99.90
63802;DHT22;49949;43.060;25.624;2024-01-27T02:03:35;-1.60;99.90
63802;DHT22;49949;43.060;25.624;2024-01-27T02:06:00;-1.50;99.90
63802;DHT22;49949;43.060;25.624;2024-01-27T02:08:26;-1.60;99.90
63802;DHT22;49949;43.060;25.624;2024-01-27T02:10:51;-1.70;99.90
63802;DHT22;49949;43.060;25.624;2024-01-27T02:13:19;-1.60;99.90
63802;DHT22;49949;43.060;25.624;2024-01-27T02:15:45;-1.60;99.90
63802;DHT22;49949;43.060;25.624;2024-01-27T02:18:11;-1.70;99.90
63802;DHT22;49949;43.060;25.624;2024-01-27T02:20:37;-1.70;99.90
63802;DHT22;49949;43.060;25.624;2024-01-27T02:23:06;-1.70;99.90
63802;DHT22;49949;43.060;25.624;2024-01-27T02:25:32;-1.70;99.90
63802;DHT22;49949;43.060;25.624;2024-01-27T02:27:58;-1.70;99.90
63802;DHT22;49949;43.060;25.624;2024-01-27T02:30:24;-1.70;99.90
63802;DHT22;49949;43.060;25.624;2024-01-27T02:32:50;-1.80;99.90
63802;DHT22;49949;43.060;25.624;2024-01-27T02:35:16;-1.70;99.90
63802;DHT22;49949;43.060;25.624;2024-01-27T02:37:42;-1.80;99.90
63802;DHT22;49949;43.060;25.624;2024-01-27T02:40:08;-1.80;99.90
63802;DHT22;49949;43.060;25.624;2024-01-27T02:42:37;-1.80;99.90
63802;DHT22;49949;43.060;25.624;2024-01-27T02:45:03;-1.80;99.90
63802;DHT22;49949;43.060;25.624;2024-01-27T02:47:29;-1.90;99.90
63802;DHT22;49949;43.060;25.624;2024-01-27T02:49:55;-1.80;99.90
63802;DHT22;49949;43.060;25.624;2024-01-27T02:52:21;-1.80;99.90
63802;DHT22;49949;43.060;25.624;2024-01-27T02:54:47;-1.90;99.90
63802;DHT22;49949;43.060;25.624;2024-01-27T02:57:12;-1.90;99.90
63802;DHT22;49949;43.060;25.624;2024-01-27T02:59:39;-1.90;99.90
63802;DHT22;49949;43.060;25.624;2024-01-27T03:02:07;-1.90;99.90
63802;DHT22;49949;43.060;25.624;2024-01-27T03:04:33;-1.90;99.90
63802;DHT22;49949;43.060;25.624;2024-01-27T03:06:59;-1.90;99.90
63802;DHT22;49949;43.060;25.624;2024-01-27T03:09:25;-1.90;99.90
63802;DHT22;49949;43.060;25.624;2024-01-27T03:11:50;-1.90;99.90
63802;DHT22;49949;43.060;25.624;2024-01-27T03:14:16;-1.90;99.90
63802;DHT22;49949;43.060;25.624;2024-01-27T03:16:43;-1.80;99.90
63802;DHT22;49949;43.060;25.624;2024-01-27T03:19:10;-1.90;99.90
63802;DHT22;49949;43.060;25.624;2024-01-27T03:21:35;-1.80;99.90
63802;DHT22;49949;43.060;25.624;2024-01-27T03:24:01;-1.80;99.90
63802;DHT22;49949;43.060;25.624;2024-01-27T03:26:27;-1.80;99.90
63802;DHT22;49949;43.060;25.624;2024-01-27T03:28:53;-1.80;99.90
63802;DHT22;49949;43.060;25.624;2024-01-27T03:31:19;-1.70;99.90
63802;DHT22;49949;43.060;25.624;2024-01-27T03:33:44;-1.80;99.90
63802;DHT22;49949;43.060;25.624;2024-01-27T03:36:11;-1.80;99.90
63802;DHT22;49949;43.060;25.624;2024-01-27T03:38:37;-1.80;99.90
63802;DHT22;49949;43.060;25.624;2024-01-27T03:41:03;-1.80;99.90
63802;DHT22;49949;43.060;25.624;2024-01-27T03:43:29;-1.80;99.90
63802;DHT22;49949;43.060;25.624;2024-01-27T03:45:56;-1.80;99.90
63802;DHT22;49949;43.060;25.624;2024-01-27T03:48:22;-1.70;99.90
63802;DHT22;49949;43.060;25.624;2024-01-27T03:50:48;-1.70;99.90
63802;DHT22;49949;43.060;25.624;2024-01-27T03:53:13;-1.60;99.90
63802;DHT22;49949;43.060;25.624;2024-01-27T03:55:39;-1.60;99.90
63802;DHT22;49949;43.060;25.624;2024-01-27T03:58:05;-1.60;99.90
63802;DHT22;49949;43.060;25.624;2024-01-27T04:00:31;-1.60;99.90
63802;DHT22;49949;43.060;25.624;2024-01-27T04:03:01;-1.60;99.90
63802;DHT22;49949;43.060;25.624;2024-01-27T04:05:29;-1.60;99.90
63802;DHT22;49949;43.060;25.624;2024-01-27T04:07:54;-1.60;99.90
63802;DHT22;49949;43.060;25.624;2024-01-27T04:10:21;-1.60;99.90
63802;DHT22;49949;43.060;25.624;2024-01-27T04:12:46;-1.60;99.90
63802;DHT22;49949;43.060;25.624;2024-01-27T04:15:12;-1.60;99.90
63802;DHT22;49949;43.060;25.624;2024-01-27T04:17:39;-1.60;99.90
63802;DHT22;49949;43.060;25.624;2024-01-27T04:20:06;-1.60;99.90
63802;DHT22;49949;43.060;25.624;2024-01-27T04:22:35;-1.80;99.90
63802;DHT22;49949;43.060;25.624;2024-01-27T04:25:02;-1.80;99.90
63802;DHT22;49949;43.060;25.624;2024-01-27T04:27:29;-1.70;99.90
63802;DHT22;49949;43.060;25.624;2024-01-27T04:29:55;-1.70;99.90
63802;DHT22;49949;43.060;25.624;2024-01-27T04:32:22;-1.60;99.90
63802;DHT22;49949;43.060;25.624;2024-01-27T04:34:48;-1.50;99.90
63802;DHT22;49949;43.060;25.624;2024-01-27T04:37:13;-1.50;99.90
63802;DHT22;49949;43.060;25.624;2024-01-27T04:39:39;-1.50;99.90
63802;DHT22;49949;43.060;25.624;2024-01-27T04:42:05;-1.50;99.90
63802;DHT22;49949;43.060;25.624;2024-01-27T04:44:34;-1.40;99.90
63802;DHT22;49949;43.060;25.624;2024-01-27T04:47:00;-1.30;99.90
63802;DHT22;49949;43.060;25.624;2024-01-27T04:49:27;-1.20;99.90
63802;DHT22;49949;43.060;25.624;2024-01-27T04:51:52;-1.20;99.90
63802;DHT22;49949;43.060;25.624;2024-01-27T04:54:18;-1.10;99.90
63802;DHT22;49949;43.060;25.624;2024-01-27T04:56:44;-1.10;99.90
63802;DHT22;49949;43.060;25.624;2024-01-27T04:59:09;-1.10;99.90
63802;DHT22;49949;43.060;25.624;2024-01-27T05:01:35;-1.10;99.90
63802;DHT22;49949;43.060;25.624;2024-01-27T05:04:01;-1.00;99.90
63802;DHT22;49949;43.060;25.624;2024-01-27T05:06:26;-0.90;99.90
63802;DHT22;49949;43.060;25.624;2024-01-27T05:08:52;-0.90;99.90
63802;DHT22;49949;43.060;25.624;2024-01-27T05:11:30;-0.90;99.90
63802;DHT22;49949;43.060;25.624;2024-01-27T05:13:56;-0.90;99.90
63802;DHT22;49949;43.060;25.624;2024-01-27T05:16:22;-0.80;99.90
63802;DHT22;49949;43.060;25.624;2024-01-27T05:18:47;-0.80;99.90
63802;DHT22;49949;43.060;25.624;2024-01-27T05:21:14;-0.70;99.90
63802;DHT22;49949;43.060;25.624;2024-01-27T05:23:39;-0.70;99.90
63802;DHT22;49949;43.060;25.624;2024-01-27T05:26:06;-0.70;99.90
63802;DHT22;49949;43.060;25.624;2024-01-27T05:28:32;-0.70;99.90
63802;DHT22;49949;43.060;25.624;2024-01-27T05:30:57;-0.60;99.90
63802;DHT22;49949;43.060;25.624;2024-01-27T05:33:23;-0.50;99.90
63802;DHT22;49949;43.060;25.624;2024-01-27T05:35:49;-0.60;99.90
63802;DHT22;49949;43.060;25.624;2024-01-27T05:38:15;-0.60;99.90
63802;DHT22;49949;43.060;25.624;2024-01-27T05:40:42;-0.50;99.90
63802;DHT22;49949;43.060;25.624;2024-01-27T05:43:07;-0.50;99.90
63802;DHT22;49949;43.060;25.624;2024-01-27T05:45:33;-0.40;99.90
63802;DHT22;49949;43.060;25.624;2024-01-27T05:47:59;-0.40;99.90
63802;DHT22;49949;43.060;25.624;2024-01-27T05:50:25;-0.30;99.90
63802;DHT22;49949;43.060;25.624;2024-01-27T05:52:51;-0.30;99.90
63802;DHT22;49949;43.060;25.624;2024-01-27T05:55:17;-0.30;99.90
63802;DHT22;49949;43.060;25.624;2024-01-27T05:57:43;-0.30;99.90
63802;DHT22;49949;43.060;25.624;2024-01-27T06:00:09;-0.20;99.90
63802;DHT22;49949;43.060;25.624;2024-01-27T06:02:35;-0.20;99.90
63802;DHT22;49949;43.060;25.624;2024-01-27T06:05:01;-0.10;99.90
63802;DHT22;49949;43.060;25.624;2024-01-27T06:07:27;-0.10;99.90
63802;DHT22;49949;43.060;25.624;2024-01-27T06:09:53;0.00;99.90
63802;DHT22;49949;43.060;25.624;2024-01-27T06:12:19;0.10;99.90
63802;DHT22;49949;43.060;25.624;2024-01-27T06:14:45;0.00;99.90
63802;DHT22;49949;43.060;25.624;2024-01-27T06:17:10;0.10;99.90
63802;DHT22;49949;43.060;25.624;2024-01-27T06:19:37;0.10;99.90
63802;DHT22;49949;43.060;25.624;2024-01-27T06:22:03;0.20;99.90
63802;DHT22;49949;43.060;25.624;2024-01-27T06:24:28;0.20;99.90
63802;DHT22;49949;43.060;25.624;2024-01-27T06:26:54;0.30;99.90
63802;DHT22;49949;43.060;25.624;2024-01-27T06:29:20;0.30;99.90
63802;DHT22;49949;43.060;25.624;2024-01-27T06:31:45;0.40;99.90
63802;DHT22;49949;43.060;25.624;2024-01-27T06:34:11;0.30;99.90
63802;DHT22;49949;43.060;25.624;2024-01-27T06:36:36;0.30;99.90
63802;DHT22;49949;43.060;25.624;2024-01-27T06:39:02;0.30;99.90
63802;DHT22;49949;43.060;25.624;2024-01-27T06:41:28;0.30;99.90
63802;DHT22;49949;43.060;25.624;2024-01-27T06:43:54;0.40;99.90
63802;DHT22;49949;43.060;25.624;2024-01-27T06:46:19;0.40;99.90
63802;DHT22;49949;43.060;25.624;2024-01-27T06:48:45;0.40;99.90
63802;DHT22;49949;43.060;25.624;2024-01-27T06:51:10;0.40;99.90
63802;DHT22;49949;43.060;25.624;2024-01-27T06:53:36;0.40;99.90
63802;DHT22;49949;43.060;25.624;2024-01-27T06:56:02;0.50;99.90
63802;DHT22;49949;43.060;25.624;2024-01-27T06:58:28;0.90;99.90
63802;DHT22;49949;43.060;25.624;2024-01-27T07:00:54;1.00;99.90
63802;DHT22;49949;43.060;25.624;2024-01-27T07:03:19;1.20;99.90
63802;DHT22;49949;43.060;25.624;2024-01-27T07:05:45;1.30;99.90
63802;DHT22;49949;43.060;25.624;2024-01-27T07:08:11;1.60;99.90
63802;DHT22;49949;43.060;25.624;2024-01-27T07:10:37;1.80;99.90
63802;DHT22;49949;43.060;25.624;2024-01-27T07:13:02;2.00;99.90
63802;DHT22;49949;43.060;25.624;2024-01-27T07:15:28;2.00;99.90
63802;DHT22;49949;43.060;25.624;2024-01-27T07:17:54;2.10;99.90
63802;DHT22;49949;43.060;25.624;2024-01-27T07:20:20;2.10;99.90
63802;DHT22;49949;43.060;25.624;2024-01-27T07:22:50;2.20;99.90
63802;DHT22;49949;43.060;25.624;2024-01-27T07:25:15;2.20;99.90
63802;DHT22;49949;43.060;25.624;2024-01-27T07:27:41;2.30;99.90
63802;DHT22;49949;43.060;25.624;2024-01-27T07:30:07;2.30;99.90
63802;DHT22;49949;43.060;25.624;2024-01-27T07:32:34;2.30;99.90
63802;DHT22;49949;43.060;25.624;2024-01-27T07:35:01;2.30;99.90
63802;DHT22;49949;43.060;25.624;2024-01-27T07:37:27;2.30;99.90
63802;DHT22;49949;43.060;25.624;2024-01-27T07:39:52;2.30;99.90
63802;DHT22;49949;43.060;25.624;2024-01-27T07:42:18;2.30;99.90
63802;DHT22;49949;43.060;25.624;2024-01-27T07:44:44;2.30;99.90
63802;DHT22;49949;43.060;25.624;2024-01-27T07:47:09;2.30;99.90
63802;DHT22;49949;43.060;25.624;2024-01-27T07:49:35;2.30;99.90
63802;DHT22;49949;43.060;25.624;2024-01-27T07:52:01;2.40;99.90
63802;DHT22;49949;43.060;25.624;2024-01-27T07:54:26;2.40;99.90
63802;DHT22;49949;43.060;25.624;2024-01-27T07:56:52;2.40;99.90
63802;DHT22;49949;43.060;25.624;2024-01-27T07:59:18;2.40;99.90
63802;DHT22;49949;43.060;25.624;2024-01-27T08:01:44;2.40;99.90
63802;DHT22;49949;43.060;25.624;2024-01-27T08:04:09;2.50;99.90
63802;DHT22;49949;43.060;25.624;2024-01-27T08:06:49;2.50;99.90
63802;DHT22;49949;43.060;25.624;2024-01-27T08:09:16;2.50;99.90
63802;DHT22;49949;43.060;25.624;2024-01-27T08:11:42;2.50;99.90
63802;DHT22;49949;43.060;25.624;2024-01-27T08:14:08;2.50;99.90
63802;DHT22;49949;43.060;25.624;2024-01-27T08:16:34;2.50;99.90
63802;DHT22;49949;43.060;25.624;2024-01-27T08:19:00;2.50;99.90
63802;DHT22;49949;43.060;25.624;2024-01-27T08:21:26;2.60;99.90
63802;DHT22;49949;43.060;25.624;2024-01-27T08:23:52;2.60;99.90
63802;DHT22;49949;43.060;25.624;2024-01-27T08:26:17;2.50;99.90
63802;DHT22;49949;43.060;25.624;2024-01-27T08:28:47;2.50;99.90
63802;DHT22;49949;43.060;25.624;2024-01-27T08:31:13;2.60;99.90
63802;DHT22;49949;43.060;25.624;2024-01-27T08:33:39;2.60;99.90
63802;DHT22;49949;43.060;25.624;2024-01-27T08:36:04;2.60;99.90
63802;DHT22;49949;43.060;25.624;2024-01-27T08:38:30;2.60;99.90
63802;DHT22;49949;43.060;25.624;2024-01-27T08:40:56;2.60;99.90
63802;DHT22;49949;43.060;25.624;2024-01-27T08:43:22;2.60;99.90
63802;DHT22;49949;43.060;25.624;2024-01-27T08:45:47;2.60;99.90
63802;DHT22;49949;43.060;25.624;2024-01-27T08:48:13;2.70;99.90
63802;DHT22;49949;43.060;25.624;2024-01-27T08:50:39;2.70;99.90
63802;DHT22;49949;43.060;25.624;2024-01-27T08:53:04;2.70;99.90
63802;DHT22;49949;43.060;25.624;2024-01-27T08:55:30;2.70;99.90
63802;DHT22;49949;43.060;25.624;2024-01-27T08:57:59;2.70;99.90
63802;DHT22;49949;43.060;25.624;2024-01-27T09:00:25;2.70;99.90
63802;DHT22;49949;43.060;25.624;2024-01-27T09:02:51;2.70;99.90
63802;DHT22;49949;43.060;25.624;2024-01-27T09:05:17;2.70;99.90
63802;DHT22;49949;43.060;25.624;2024-01-27T09:07:43;2.80;99.90
63802;DHT22;49949;43.060;25.624;2024-01-27T09:10:09;2.80;99.90
63802;DHT22;49949;43.060;25.624;2024-01-27T09:12:37;2.90;99.90
63802;DHT22;49949;43.060;25.624;2024-01-27T09:15:04;2.80;99.90
63802;DHT22;49949;43.060;25.624;2024-01-27T09:17:29;2.80;99.90
63802;DHT22;49949;43.060;25.624;2024-01-27T09:19:55;2.80;99.90
63802;DHT22;49949;43.060;25.624;2024-01-27T09:22:21;3.00;99.90
63802;DHT22;49949;43.060;25.624;2024-01-27T09:24:46;3.10;99.90
63802;DHT22;49949;43.060;25.624;2024-01-27T09:27:12;3.20;99.90
63802;DHT22;49949;43.060;25.624;2024-01-27T09:29:38;3.40;99.90
63802;DHT22;49949;43.060;25.624;2024-01-27T09:32:04;3.80;99.90
63802;DHT22;49949;43.060;25.624;2024-01-27T09:34:30;3.90;99.90
63802;DHT22;49949;43.060;25.624;2024-01-27T09:36:55;4.30;99.90
63802;DHT22;49949;43.060;25.624;2024-01-27T09:39:21;4.40;99.90
63802;DHT22;49949;43.060;25.624;2024-01-27T09:41:48;4.50;99.90
63802;DHT22;49949;43.060;25.624;2024-01-27T09:44:18;4.60;99.90
63802;DHT22;49949;43.060;25.624;2024-01-27T09:46:45;4.70;99.90
63802;DHT22;49949;43.060;25.624;2024-01-27T09:49:13;4.90;99.90
63802;DHT22;49949;43.060;25.624;2024-01-27T09:51:41;4.90;99.90
63802;DHT22;49949;43.060;25.624;2024-01-27T09:54:07;4.90;99.90
63802;DHT22;49949;43.060;25.624;2024-01-27T09:56:34;5.00;99.90
63802;DHT22;49949;43.060;25.624;2024-01-27T09:59:01;5.00;99.90
63802;DHT22;49949;43.060;25.624;2024-01-27T10:01:27;4.90;99.90
63802;DHT22;49949;43.060;25.624;2024-01-27T10:03:54;4.80;99.90
63802;DHT22;49949;43.060;25.624;2024-01-27T10:06:23;4.80;99.90
63802;DHT22;49949;43.060;25.624;2024-01-27T10:08:54;4.90;99.90
63802;DHT22;49949;43.060;25.624;2024-01-27T10:11:20;5.00;99.90
63802;DHT22;49949;43.060;25.624;2024-01-27T10:13:57;5.00;99.90
63802;DHT22;49949;43.060;25.624;2024-01-27T10:16:23;5.10;99.90
63802;DHT22;49949;43.060;25.624;2024-01-27T10:18:59;5.10;99.90
63802;DHT22;49949;43.060;25.624;2024-01-27T10:21:26;5.00;99.90
63802;DHT22;49949;43.060;25.624;2024-01-27T10:23:52;4.90;99.90
63802;DHT22;49949;43.060;25.624;2024-01-27T10:26:18;4.90;99.90
63802;DHT22;49949;43.060;25.624;2024-01-27T10:28:53;5.00;99.90
63802;DHT22;49949;43.060;25.624;2024-01-27T10:31:19;5.00;99.90
63802;DHT22;49949;43.060;25.624;2024-01-27T10:33:55;5.10;99.90
63802;DHT22;49949;43.060;25.624;2024-01-27T10:36:25;5.10;99.90
63802;DHT22;49949;43.060;25.624;2024-01-27T10:38:51;5.00;99.90
63802;DHT22;49949;43.060;25.624;2024-01-27T10:41:22;5.00;99.90
63802;DHT22;49949;43.060;25.624;2024-01-27T10:43:53;5.10;99.90
63802;DHT22;49949;43.060;25.624;2024-01-27T10:46:20;5.10;99.90
63802;DHT22;49949;43.060;25.624;2024-01-27T10:48:52;5.20;99.90
63802;DHT22;49949;43.060;25.624;2024-01-27T10:51:24;5.20;99.90
63802;DHT22;49949;43.060;25.624;2024-01-27T10:53:52;5.20;99.90
63802;DHT22;49949;43.060;25.624;2024-01-27T10:56:19;5.20;99.90
63802;DHT22;49949;43.060;25.624;2024-01-27T10:58:46;5.10;99.90
63802;DHT22;49949;43.060;25.624;2024-01-27T11:01:15;5.10;99.90
63802;DHT22;49949;43.060;25.624;2024-01-27T11:03:43;5.20;99.90
63802;DHT22;49949;43.060;25.624;2024-01-27T11:06:11;5.20;99.90
63802;DHT22;49949;43.060;25.624;2024-01-27T11:08:38;5.30;99.90
63802;DHT22;49949;43.060;25.624;2024-01-27T11:11:04;5.30;99.90
63802;DHT22;49949;43.060;25.624;2024-01-27T11:13:32;5.30;99.90
63802;DHT22;49949;43.060;25.624;2024-01-27T11:15:58;5.40;99.90
63802;DHT22;49949;43.060;25.624;2024-01-27T11:18:25;5.40;99.90
63802;DHT22;49949;43.060;25.624;2024-01-27T11:20:55;5.30;99.90
63802;DHT22;49949;43.060;25.624;2024-01-27T11:23:34;5.30;99.90
63802;DHT22;49949;43.060;25.624;2024-01-27T11:26:07;5.30;99.90
63802;DHT22;49949;43.060;25.624;2024-01-27T11:28:34;5.30;99.90
63802;DHT22;49949;43.060;25.624;2024-01-27T11:31:07;5.40;99.90
63802;DHT22;49949;43.060;25.624;2024-01-27T11:33:33;5.30;99.90
63802;DHT22;49949;43.060;25.624;2024-01-27T11:36:05;5.40;99.90
63802;DHT22;49949;43.060;25.624;2024-01-27T11:38:32;5.40;99.90
63802;DHT22;49949;43.060;25.624;2024-01-27T11:41:01;5.40;99.90
63802;DHT22;49949;43.060;25.624;2024-01-27T11:43:27;5.40;99.90
63802;DHT22;49949;43.060;25.624;2024-01-27T11:46:00;5.40;99.90
63802;DHT22;49949;43.060;25.624;2024-01-27T11:48:26;5.30;99.90
63802;DHT22;49949;43.060;25.624;2024-01-27T11:51:08;5.30;99.90
63802;DHT22;49949;43.060;25.624;2024-01-27T11:53:36;5.40;99.90
63802;DHT22;49949;43.060;25.624;2024-01-27T11:56:02;5.40;99.90
63802;DHT22;49949;43.060;25.624;2024-01-27T11:58:29;5.40;99.90
63802;DHT22;49949;43.060;25.624;2024-01-27T12:00:58;5.40;99.90
63802;DHT22;49949;43.060;25.624;2024-01-27T12:03:25;5.40;99.90
63802;DHT22;49949;43.060;25.624;2024-01-27T12:05:50;5.40;99.90
63802;DHT22;49949;43.060;25.624;2024-01-27T12:08:17;5.30;99.90
63802;DHT22;49949;43.060;25.624;2024-01-27T12:10:43;5.40;99.90
63802;DHT22;49949;43.060;25.624;2024-01-27T12:13:09;5.40;99.90
63802;DHT22;49949;43.060;25.624;2024-01-27T12:15:34;5.40;99.90
63802;DHT22;49949;43.060;25.624;2024-01-27T12:18:00;5.50;99.90
63802;DHT22;49949;43.060;25.624;2024-01-27T12:20:26;5.50;99.90
63802;DHT22;49949;43.060;25.624;2024-01-27T12:23:07;5.50;99.90
63802;DHT22;49949;43.060;25.624;2024-01-27T12:25:34;5.50;99.90
63802;DHT22;49949;43.060;25.624;2024-01-27T12:28:03;5.50;99.90
63802;DHT22;49949;43.060;25.624;2024-01-27T12:30:31;5.40;99.90
63802;DHT22;49949;43.060;25.624;2024-01-27T12:32:57;5.50;99.90
63802;DHT22;49949;43.060;25.624;2024-01-27T12:35:23;5.60;99.90
63802;DHT22;49949;43.060;25.624;2024-01-27T12:37:50;5.60;99.90
63802;DHT22;49949;43.060;25.624;2024-01-27T12:40:20;5.70;99.90
63802;DHT22;49949;43.060;25.624;2024-01-27T12:42:46;5.80;99.90
63802;DHT22;49949;43.060;25.624;2024-01-27T12:45:12;5.80;99.90
63802;DHT22;49949;43.060;25.624;2024-01-27T12:47:38;5.80;99.90
63802;DHT22;49949;43.060;25.624;2024-01-27T12:50:05;5.80;99.90
63802;DHT22;49949;43.060;25.624;2024-01-27T12:52:32;5.80;99.90
63802;DHT22;49949;43.060;25.624;2024-01-27T12:54:57;5.90;99.90
63802;DHT22;49949;43.060;25.624;2024-01-27T12:57:23;5.90;99.90
63802;DHT22;49949;43.060;25.624;2024-01-27T12:59:49;6.00;99.90
63802;DHT22;49949;43.060;25.624;2024-01-27T13:02:15;6.00;99.90
63802;DHT22;49949;43.060;25.624;2024-01-27T13:04:41;6.00;99.90
63802;DHT22;49949;43.060;25.624;2024-01-27T13:07:07;6.00;99.90
63802;DHT22;49949;43.060;25.624;2024-01-27T13:09:33;6.10;99.90
63802;DHT22;49949;43.060;25.624;2024-01-27T13:11:59;6.10;99.90
63802;DHT22;49949;43.060;25.624;2024-01-27T13:14:25;6.30;99.90
63802;DHT22;49949;43.060;25.624;2024-01-27T13:16:50;6.20;99.90
63802;DHT22;49949;43.060;25.624;2024-01-27T13:19:19;6.20;99.90
63802;DHT22;49949;43.060;25.624;2024-01-27T13:21:44;6.30;99.90
63802;DHT22;49949;43.060;25.624;2024-01-27T13:24:10;6.30;99.90
63802;DHT22;49949;43.060;25.624;2024-01-27T13:26:36;6.30;99.90
63802;DHT22;49949;43.060;25.624;2024-01-27T13:29:04;6.40;99.90
63802;DHT22;49949;43.060;25.624;2024-01-27T13:31:30;6.40;99.90
63802;DHT22;49949;43.060;25.624;2024-01-27T13:33:57;6.40;99.90
63802;DHT22;49949;43.060;25.624;2024-01-27T13:36:24;6.40;99.90
63802;DHT22;49949;43.060;25.624;2024-01-27T13:38:50;6.50;99.90
63802;DHT22;49949;43.060;25.624;2024-01-27T13:41:17;6.50;99.90
63802;DHT22;49949;43.060;25.624;2024-01-27T13:43:43;6.50;99.90
63802;DHT22;49949;43.060;25.624;2024-01-27T13:46:09;6.40;99.90
63802;DHT22;49949;43.060;25.624;2024-01-27T13:48:35;6.40;99.90
63802;DHT22;49949;43.060;25.624;2024-01-27T13:51:00;6.40;99.90
63802;DHT22;49949;43.060;25.624;2024-01-27T13:53:26;6.50;99.90
63802;DHT22;49949;43.060;25.624;2024-01-27T13:55:52;6.50;99.90
63802;DHT22;49949;43.060;25.624;2024-01-27T13:58:18;6.60;99.90
63802;DHT22;49949;43.060;25.624;2024-01-27T14:00:44;6.60;99.90
63802;DHT22;49949;43.060;25.624;2024-01-27T14:03:10;6.50;99.90
63802;DHT22;49949;43.060;25.624;2024-01-27T14:05:35;6.50;99.90
63802;DHT22;49949;43.060;25.624;2024-01-27T14:08:04;6.50;99.90
63802;DHT22;49949;43.060;25.624;2024-01-27T14:10:32;6.50;99.90
63802;DHT22;49949;43.060;25.624;2024-01-27T14:12:58;6.50;99.90
63802;DHT22;49949;43.060;25.624;2024-01-27T14:15:23;6.50;99.90
63802;DHT22;49949;43.060;25.624;2024-01-27T14:17:49;6.40;99.90
63802;DHT22;49949;43.060;25.624;2024-01-27T14:20:15;6.40;99.90
63802;DHT22;49949;43.060;25.624;2024-01-27T14:22:41;6.40;99.90
63802;DHT22;49949;43.060;25.624;2024-01-27T14:25:07;6.40;99.90
63802;DHT22;49949;43.060;25.624;2024-01-27T14:27:33;6.20;99.90
63802;DHT22;49949;43.060;25.624;2024-01-27T14:30:00;6.20;99.90
63802;DHT22;49949;43.060;25.624;2024-01-27T14:32:26;6.10;99.90
63802;DHT22;49949;43.060;25.624;2024-01-27T14:34:52;6.20;99.90
63802;DHT22;49949;43.060;25.624;2024-01-27T14:37:18;6.10;99.90
63802;DHT22;49949;43.060;25.624;2024-01-27T14:39:46;6.10;99.90
63802;DHT22;49949;43.060;25.624;2024-01-27T14:42:13;6.10;99.90
63802;DHT22;49949;43.060;25.624;2024-01-27T14:44:39;6.00;99.90
63802;DHT22;49949;43.060;25.624;2024-01-27T14:47:05;6.00;99.90
63802;DHT22;49949;43.060;25.624;2024-01-27T14:49:32;6.00;99.90
63802;DHT22;49949;43.060;25.624;2024-01-27T14:51:57;5.90;99.90
63802;DHT22;49949;43.060;25.624;2024-01-27T14:54:23;5.80;99.90
63802;DHT22;49949;43.060;25.624;2024-01-27T14:56:49;5.80;99.90
63802;DHT22;49949;43.060;25.624;2024-01-27T14:59:15;5.80;99.90
63802;DHT22;49949;43.060;25.624;2024-01-27T15:01:41;5.80;99.90
63802;DHT22;49949;43.060;25.624;2024-01-27T15:04:07;5.90;99.90
63802;DHT22;49949;43.060;25.624;2024-01-27T15:06:33;5.90;99.90
63802;DHT22;49949;43.060;25.624;2024-01-27T15:08:59;5.90;99.90
63802;DHT22;49949;43.060;25.624;2024-01-27T15:11:25;5.90;99.90
63802;DHT22;49949;43.060;25.624;2024-01-27T15:13:51;5.80;99.90
63802;DHT22;49949;43.060;25.624;2024-01-27T15:16:16;5.90;99.90
63802;DHT22;49949;43.060;25.624;2024-01-27T15:18:42;5.90;99.90
63802;DHT22;49949;43.060;25.624;2024-01-27T15:21:10;6.00;99.90